Airfield :
LOGIN :

Register | Disclaimer

   EN    FR    IT 

 










Legend :    VFR   Marginal VFR   IFR   Intensive IFR   Very Intensive IFR
Visi :
Ceiling :
>= 8 km
>= 3000ft
5 to 8 km
1000 to 3000 ft
1500m to 5 km
500 to 1000 ft
800 to 1500m
200 to 500 ft
< 800m
< 200 ft
Symbols :   Thunderstorms  Fog  Heavy snow  Heavy precipitations  Wind > 20 kt
SIGMETs :     Misc.  Thunderstorms  Icing  Turbulence  Mountain Waves  Volcanic Ashes






- Airport Elevation : 90 ft
- IATA code : NTE


LFRS - Nantes

CURRENT METAR :
  • 281900Z AUTO 03006KT 340V080 CAVOK 21/09 Q1018 NOSIG

EXPIRED METARs :
  • 281830Z AUTO 03008KT 350V070 CAVOK 21/09 Q1018 NOSIG
  • 281800Z AUTO 03008KT 360V070 CAVOK 22/08 Q1018 NOSIG
  • 281730Z AUTO 02008KT 340V070 CAVOK 22/09 Q1018 NOSIG
  • 281700Z AUTO 03008KT 350V090 CAVOK 22/09 Q1018 NOSIG
  • 281630Z AUTO 03009KT 340V070 CAVOK 22/09 Q1018 NOSIG

TAF TAF LFRS
Valid from the 28 at 18:00 until the 30 at 00:00 UTC


281700Z 2818/2924 03010KT CAVOK
ATIS : +33 2 40 05 12 74



MET'MAP, your aeronautical weather chart ! - Copyright ORBIFLY December 2007 - Disclaimer

ORBIFLY MET'MAP TEAM :

Programming & Development : Alexandra Zaïnal
Original concept : Baudouin d'Aumeries
Technical & hardware support : Manuel Goepfert
Assistance : Marc-Olivier Méhu

Contact : metmap@orbifly.com




SOURCES & CREDITS :

   NOAA